Home > Products > Valid Products > MTR

000
SAUS46 KSTO 280653
MTRBLU
METAR KBLU 280652Z AUTO 34005KT 1/2SM SN FG VV004 00/M02 A2966 RMK
AO2 SLP038 P0010 T00001017





000
SAUS46 KSTO 280652
MTRBLU
SPECI KBLU 280650Z AUTO 35005KT 1/2SM SN FG VV004 00/M02 A2966 RMK
AO2 P0009





000
SAUS46 KSTO 280637
MTRBLU
SPECI KBLU 280636Z AUTO 33003KT 1SM -SN BR OVC005 01/M01 A2966 RMK
AO2 P0007 T00061011





000
SAUS46 KSTO 280628
MTRBLU
SPECI KBLU 280627Z AUTO 35004KT 1/2SM SN FG VV004 01/M01 A2966 RMK
AO2 P0005 T00061011





000
SAUS46 KSTO 280612
MTRBLU
SPECI KBLU 280611Z AUTO 00000KT 1 1/4SM -SN BR OVC005 00/M01 A2967
RMK AO2 P0002 T00001011





000
SAUS46 KSTO 280609
MTRBLU
SPECI KBLU 280608Z AUTO 00000KT 2SM -SN BR OVC005 00/M01 A2967 RMK
AO2 P0001 T00001011





000
SAUS46 KSTO 280553
MTRBLU
METAR KBLU 280552Z AUTO 05003KT 3/4SM -SN BR VV005 00/M02 A2967 RMK
AO2 SLP042 P0010 60030 I6000 T00001017 10050 20000 56004





000
SAUS46 KSTO 280553
MTRBLU
METAR KBLU 280552Z AUTO 05003KT 3/4SM -SN BR VV005 00/M02 A2967 RMK
AO2 SLP042 P0010 60030 I6000 T00001017 10050 20000 56004





000
SAUS46 KSTO 280543
MTRBLU
SPECI KBLU 280542Z AUTO 00000KT 1/2SM SN FG VV004 00/M01 A2966 RMK
AO2 P0008 T00001011





000
SAUS46 KSTO 280543
MTRBLU
SPECI KBLU 280542Z AUTO 00000KT 1/2SM SN FG VV004 00/M01 A2966 RMK
AO2 P0008 T00001011





000
SAUS46 KSTO 280516
MTRBLU
SPECI KBLU 280515Z AUTO 32007KT 3/4SM -SN BR VV006 00/M02 A2967 RMK
AO2 P0003 T00001017





000
SAUS46 KSTO 280516
MTRBLU
SPECI KBLU 280515Z AUTO 32007KT 3/4SM -SN BR VV006 00/M02 A2967 RMK
AO2 P0003 T00001017





000
SAUS46 KSTO 280453
MTRBLU
METAR KBLU 280452Z AUTO 32008KT 3/4SM -SN BR VV004 00/M01 A2967 RMK
AO2 RAB01E30SNE01B11 TSB12E27 SLP043 P0018 I1000 T00001011





000
SAUS46 KSTO 280453
MTRBLU
METAR KBLU 280452Z AUTO 32008KT 3/4SM -SN BR VV004 00/M01 A2967 RMK
AO2 RAB01E30SNE01B11 TSB12E27 SLP043 P0018 I1000 T00001011





000
SAUS46 KSTO 280436
MTRBLU
SPECI KBLU 280435Z AUTO 30006G18KT 1/2SM SN FG VV003 00/M01 A2967
RMK AO2 RAB01E30SNE01B11 TSB12E27 P0016 I1000 T00001011





000
SAUS46 KSTO 280436
MTRBLU
SPECI KBLU 280435Z AUTO 30006G18KT 1/2SM SN FG VV003 00/M01 A2967
RMK AO2 RAB01E30SNE01B11 TSB12E27 P0016 I1000 T00001011





000
SAUS46 KSTO 280430 COR
MTRBLU
SPECI KBLU 280427Z AUTO 29010G19KT 260V330 1/4SM VCTS +RA FG VV002
01/M01 A2967 RMK AO2 RAB01SNE01B11E17 TSB12E27 P0007 I1000 T00061006





000
SAUS46 KSTO 280430 COR
MTRBLU
SPECI KBLU 280427Z AUTO 29010G19KT 260V330 1/4SM VCTS +RA FG VV002
01/M01 A2967 RMK AO2 RAB01SNE01B11E17 TSB12E27 P0007 I1000 T00061006





000
SAUS46 KSTO 280429 COR
MTRBLU
SPECI KBLU 280427Z AUTO 29010G19KT 260V330 1/4SM VCTS +RA FG VV002
01/M01 A2967 RMK AO2 RAB01SNE01B11E17 TSB12E27 P0007 I1000 T00061006





000
SAUS46 KSTO 280429 COR
MTRBLU
SPECI KBLU 280427Z AUTO 29010G19KT 260V330 1/4SM VCTS +RA FG VV002
01/M01 A2967 RMK AO2 RAB01SNE01B11E17 TSB12E27 P0007 I1000 T00061006





000
SAUS46 KSTO 280428
MTRBLU
SPECI KBLU 280427Z AUTO 29010G19KT 260V330 1/4SM VCTS +RA FG VV002
01/M01 A2967 RMK AO2 RAB01SNE01B11E17 TSB12E27 P0007 I1000 T00061006





000
SAUS46 KSTO 280428
MTRBLU
SPECI KBLU 280427Z AUTO 29010G19KT 260V330 1/4SM VCTS +RA FG VV002
01/M01 A2967 RMK AO2 RAB01SNE01B11E17 TSB12E27 P0007 I1000 T00061006





000
SAUS46 KSTO 280420
MTRBLU
SPECI KBLU 280418Z AUTO 19008KT 1/2SM -TSRA FG VV004 02/01 A2965 RMK
AO2 LTG DSNT S AND SW RAB01SNE01B11E17 TSB12 P0002 T00220011





000
SAUS46 KSTO 280420
MTRBLU
SPECI KBLU 280418Z AUTO 19008KT 1/2SM -TSRA FG VV004 02/01 A2965 RMK
AO2 LTG DSNT S AND SW RAB01SNE01B11E17 TSB12 P0002 T00220011





000
SAUS46 KSTO 280403
MTRBLU
SPECI KBLU 280402Z AUTO 18010KT 3/4SM VCTS -RA BR VV004 03/01 A2965
RMK AO2 VIS 1/4V5 LTG DSNT W RAB01SNE01 P0000 T00280011





000
SAUS46 KSTO 280403
MTRBLU
SPECI KBLU 280402Z AUTO 18010KT 3/4SM VCTS -RA BR VV004 03/01 A2965
RMK AO2 VIS 1/4V5 LTG DSNT W RAB01SNE01 P0000 T00280011





000
SAUS46 KSTO 280401
MTRBLU
SPECI KBLU 280400Z AUTO 18010KT 1 1/2SM VCTS -SN BR OVC005 03/01
A2965 RMK AO2 VIS 1/4V5 LTG DSNT W P0000 T00280011





000
SAUS46 KSTO 280401
MTRBLU
SPECI KBLU 280400Z AUTO 18010KT 1 1/2SM VCTS -SN BR OVC005 03/01
A2965 RMK AO2 VIS 1/4V5 LTG DSNT W P0000 T00280011





000
SAUS46 KSTO 280354
MTRBLU
METAR KBLU 280352Z AUTO 18010G16KT 3SM VCTS -SN BR SCT002 OVC009
02/00 A2966 RMK AO2 LTG DSNT W AND NW RAB30E50SNB50 SLP032 P0002
T00220000





000
SAUS46 KSTO 280354
MTRBLU
METAR KBLU 280352Z AUTO 18010G16KT 3SM VCTS -SN BR SCT002 OVC009
02/00 A2966 RMK AO2 LTG DSNT W AND NW RAB30E50SNB50 SLP032 P0002
T00220000





000
SAUS46 KSTO 280349
MTRBLU
SPECI KBLU 280348Z AUTO 18011G16KT 2SM VCTS RA BR SCT002 OVC006
02/01 A2966 RMK AO2 VIS 1 1/4V4 LTG DSNT W AND NW RAB30 P0002





000
SAUS46 KSTO 280349
MTRBLU
SPECI KBLU 280348Z AUTO 18011G16KT 2SM VCTS RA BR SCT002 OVC006
02/01 A2966 RMK AO2 VIS 1 1/4V4 LTG DSNT W AND NW RAB30 P0002





000
SAUS46 KSTO 280344
MTRBLU
SPECI KBLU 280343Z AUTO 18011G15KT 1 1/2SM VCTS RA BR BKN002 OVC008
02/01 A2966 RMK AO2 VIS 1/2V4 LTG DSNT W RAB30 P0001 T00220011





000
SAUS46 KSTO 280335 COR
MTRBLU
SPECI KBLU 280331Z AUTO 18010KT 1 1/4SM VCTS -RA BR BKN002 BKN008
OVC016 03/01 A2966 RMK AO2 VIS 3/4V5 LTG DSNT NW RAB30 P0000
T00280011





000
SAUS46 KSTO 280333 COR
MTRBLU
SPECI KBLU 280331Z AUTO 18010KT 1 1/4SM VCTS -RA BR BKN002 BKN008
OVC016 03/01 A2966 RMK AO2 VIS 3/4V5 LTG DSNT NW RAB30 P0000
T00280011





000
SAUS46 KSTO 280328
MTRBLU
SPECI KBLU 280327Z AUTO 17010G15KT 1 3/4SM BR BKN004 BKN008 OVC016
03/01 A2966 RMK AO2 T00280011





000
SAUS46 KSTO 280328
MTRBLU
SPECI KBLU 280327Z AUTO 17010G15KT 1 3/4SM BR BKN004 BKN008 OVC016
03/01 A2966 RMK AO2 T00280011





000
SAUS46 KSTO 280315
MTRBLU
SPECI KBLU 280314Z AUTO 19006KT 10SM BKN004 BKN009 OVC065 03/01
A2967 RMK AO2 LTG DSNT W CIG 003V007 T00280006





000
SAUS46 KSTO 280254
MTRBLU
METAR KBLU 280252Z AUTO 21005KT 10SM OVC006 03/01 A2968 RMK AO2 LTG
DSNT W CIG 004V009 SLP044 60000 T00280011 55004





000
SAUS46 KSTO 280254
MTRBLU
METAR KBLU 280252Z AUTO 21005KT 10SM OVC006 03/01 A2968 RMK AO2 LTG
DSNT W CIG 004V009 SLP044 60000 T00280011 55004





000
SAUS46 KSTO 280202
MTRBLU
SPECI KBLU 280201Z AUTO 20005KT 10SM BKN008 OVC013 03/01 A2968 RMK
AO2 LTG DSNT SE T00330006





000
SAUS46 KSTO 280153
MTRBLU
METAR KBLU 280152Z AUTO 20005KT 10SM BKN010 BKN013 03/01 A2968 RMK
AO2 LTG DSNT SE CIG 007V011 SLP037 T00330006





000
SAUS46 KSTO 280153
MTRBLU
METAR KBLU 280152Z AUTO 20005KT 10SM BKN010 BKN013 03/01 A2968 RMK
AO2 LTG DSNT SE CIG 007V011 SLP037 T00330006





000
SAUS46 KSTO 280138
MTRBLU
SPECI KBLU 280136Z AUTO VRB04KT 10SM BKN011 BKN018 BKN025 03/00
A2969 RMK AO2 CIG 008V013 T00330000





000
SAUS46 KSTO 280138
MTRBLU
SPECI KBLU 280136Z AUTO VRB04KT 10SM BKN011 BKN018 BKN025 03/00
A2969 RMK AO2 CIG 008V013 T00330000





000
SAUS46 KSTO 280129
MTRBLU
SPECI KBLU 280128Z AUTO VRB05KT 10SM SCT011 SCT015 BKN042 03/00
A2969 RMK AO2 T00330000





000
SAUS46 KSTO 280129
MTRBLU
SPECI KBLU 280128Z AUTO VRB05KT 10SM SCT011 SCT015 BKN042 03/00
A2969 RMK AO2 T00330000





000
SAUS46 KSTO 280053
MTRBLU
METAR KBLU 280052Z AUTO 24008KT 10SM SCT009 BKN012 BKN018 04/01
A2969 RMK AO2 RAE2355 SLP042 P0000 T00390006





000
SAUS46 KSTO 280053
MTRBLU
METAR KBLU 280052Z AUTO 24008KT 10SM SCT009 BKN012 BKN018 04/01
A2969 RMK AO2 RAE2355 SLP042 P0000 T00390006





000
SAUS46 KSTO 280048
MTRBLU
SPECI KBLU 280047Z AUTO 24008G15KT 10SM BKN009 BKN013 04/01 A2969
RMK AO2 RAE2355 CIG 007V012 P0000





000
SAUS46 KSTO 280048
MTRBLU
SPECI KBLU 280047Z AUTO 24008G15KT 10SM BKN009 BKN013 04/01 A2969
RMK AO2 RAE2355 CIG 007V012 P0000





000
SAUS46 KSTO 280040
MTRBLU
SPECI KBLU 280039Z AUTO 24008KT 200V270 10SM SCT013 BKN021 04/01
A2969 RMK AO2 RAE2355 P0000 T00440006





000
SAUS46 KSTO 280040
MTRBLU
SPECI KBLU 280039Z AUTO 24008KT 200V270 10SM SCT013 BKN021 04/01
A2969 RMK AO2 RAE2355 P0000 T00440006





000
SAUS46 KSTO 272353
MTRBLU
METAR KBLU 272352Z AUTO 24011G17KT 210V280 10SM -RA SCT015 BKN035
OVC075 04/M01 A2970 RMK AO2 RAB35 SLP042 P0000 60000 T00391006 10056
20033 56017





000
SAUS46 KSTO 272353
MTRBLU
METAR KBLU 272352Z AUTO 24011G17KT 210V280 10SM -RA SCT015 BKN035
OVC075 04/M01 A2970 RMK AO2 RAB35 SLP042 P0000 60000 T00391006 10056
20033 56017





000
SAUS46 KSTO 272317
MTRBLU
SPECI KBLU 272316Z AUTO 21007KT 10SM SCT014 BKN020 BKN065 04/00
A2971 RMK AO2 T00440000





000
SAUS46 KSTO 272253
MTRBLU
METAR KBLU 272252Z AUTO 21009G17KT 10SM FEW014 BKN060 BKN075 06/00
A2972 RMK AO2 SLP041 T00560000





000
SAUS46 KSTO 272253
MTRBLU
METAR KBLU 272252Z AUTO 21009G17KT 10SM FEW014 BKN060 BKN075 06/00
A2972 RMK AO2 SLP041 T00560000





000
SAUS46 KSTO 272219
MTRBLU
SPECI KBLU 272218Z AUTO 22010G17KT 10SM SCT019 SCT027 BKN050 05/M01
A2972 RMK AO2 T00501011





000
SAUS46 KSTO 272219
MTRBLU
SPECI KBLU 272218Z AUTO 22010G17KT 10SM SCT019 SCT027 BKN050 05/M01
A2972 RMK AO2 T00501011





000
SAUS46 KSTO 272202
MTRBLU
SPECI KBLU 272201Z AUTO 23008G15KT 10SM BKN020 BKN029 BKN070 05/M01
A2973 RMK AO2 T00501006





000
SAUS46 KSTO 272202
MTRBLU
SPECI KBLU 272201Z AUTO 23008G15KT 10SM BKN020 BKN029 BKN070 05/M01
A2973 RMK AO2 T00501006





000
SAUS46 KSTO 272153
MTRBLU
METAR KBLU 272152Z AUTO 24010G16KT 210V280 10SM SCT020 SCT028 BKN039
05/M01 A2973 RMK AO2 SLP046 T00501011





000
SAUS46 KSTO 272122
MTRBLU
SPECI KBLU 272121Z AUTO 24008KT 200V260 10SM FEW015 BKN021 BKN032
06/M01 A2974 RMK AO2 T00561011





000
SAUS46 KSTO 272112
MTRBLU
SPECI KBLU 272111Z AUTO 22010G15KT 10SM FEW014 SCT020 BKN034 05/M01
A2975 RMK AO2 T00501011





000
SAUS46 KSTO 272112
MTRBLU
SPECI KBLU 272111Z AUTO 22010G15KT 10SM FEW014 SCT020 BKN034 05/M01
A2975 RMK AO2 T00501011





000
SAUS46 KSTO 272053
MTRBLU
METAR KBLU 272052Z AUTO 24009KT 10SM SCT016 BKN024 OVC075 04/M01
A2976 RMK AO2 RAB38E48 SLP057 P0000 60000 T00391006 58013





000
SAUS46 KSTO 271953
MTRBLU
METAR KBLU 271952Z AUTO 25007KT 220V290 10SM FEW019 SCT028 SCT060
06/M01 A2979 RMK AO2 SLP064 T00561011





000
SAUS46 KSTO 271953
MTRBLU
METAR KBLU 271952Z AUTO 25007KT 220V290 10SM FEW019 SCT028 SCT060
06/M01 A2979 RMK AO2 SLP064 T00561011





000
SAUS46 KSTO 271952
MTRBLU
SPECI KBLU 271950Z AUTO 23005KT 10SM FEW019 FEW028 06/M01 A2979 RMK
AO2





000
SAUS46 KSTO 271952
MTRBLU
SPECI KBLU 271950Z AUTO 23005KT 10SM FEW019 FEW028 06/M01 A2979 RMK
AO2





000
SAUS46 KSTO 271926
MTRBLU
SPECI KBLU 271925Z AUTO 28007KT 10SM SCT010 BKN018 BKN027 05/M01
A2980 RMK AO2 T00501011





000
SAUS46 KSTO 271926
MTRBLU
SPECI KBLU 271925Z AUTO 28007KT 10SM SCT010 BKN018 BKN027 05/M01
A2980 RMK AO2 T00501011





000
SAUS46 KSTO 271853
MTRBLU
METAR KBLU 271852Z AUTO VRB05KT 10SM FEW004 BKN008 BKN016 04/01
A2981 RMK AO2 CIG 006V010 SLP071 T00440006





000
SAUS46 KSTO 271853
MTRBLU
METAR KBLU 271852Z AUTO VRB05KT 10SM FEW004 BKN008 BKN016 04/01
A2981 RMK AO2 CIG 006V010 SLP071 T00440006





000
SAUS46 KSTO 271840
MTRBLU
SPECI KBLU 271839Z AUTO 24007KT 210V280 10SM OVC006 04/01 A2981 RMK
AO2 T00390006





000
SAUS46 KSTO 271840
MTRBLU
SPECI KBLU 271839Z AUTO 24007KT 210V280 10SM OVC006 04/01 A2981 RMK
AO2 T00390006





000
SAUS46 KSTO 271753
MTRBLU
METAR KBLU 271752Z AUTO 18005KT 10SM BKN004 OVC009 03/01 A2981 RMK
AO2 SLP073 T00330011 10033 20017 56003





000
SAUS46 KSTO 271753
MTRBLU
METAR KBLU 271752Z AUTO 18005KT 10SM BKN004 OVC009 03/01 A2981 RMK
AO2 SLP073 T00330011 10033 20017 56003





000
SAUS46 KSTO 271752
MTRBLU
SPECI KBLU 271750Z AUTO 18006KT 10SM BKN004 OVC009 03/01 A2981 RMK
AO2





000
SAUS46 KSTO 271752
MTRBLU
SPECI KBLU 271750Z AUTO 18006KT 10SM BKN004 OVC009 03/01 A2981 RMK
AO2





000
SAUS46 KSTO 271745
MTRBLU
SPECI KBLU 271743Z AUTO 21006KT 2 1/2SM BR BKN002 OVC009 03/01 A2981
RMK AO2 T00280011





000
SAUS46 KSTO 271745
MTRBLU
SPECI KBLU 271743Z AUTO 21006KT 2 1/2SM BR BKN002 OVC009 03/01 A2981
RMK AO2 T00280011





000
SAUS46 KSTO 271740
MTRBLU
SPECI KBLU 271739Z AUTO 22006KT 1SM BR OVC002 03/01 A2982 RMK AO2
T00280011





000
SAUS46 KSTO 271740
MTRBLU
SPECI KBLU 271739Z AUTO 22006KT 1SM BR OVC002 03/01 A2982 RMK AO2
T00280011





000
SAUS46 KSTO 271733
MTRBLU
SPECI KBLU 271732Z AUTO 21006KT 1 3/4SM BR OVC002 03/01 A2982 RMK
AO2 VIS 1/2V5 T00280011





000
SAUS46 KSTO 271731
MTRBLU
SPECI KBLU 271730Z AUTO 22006KT 3SM BR OVC002 03/01 A2982 RMK AO2
T00280011





000
SAUS46 KSTO 271724
MTRBLU
SPECI KBLU 271723Z AUTO VRB04KT 2 1/2SM BR BKN002 OVC010 03/01 A2982
RMK AO2 T00280011





000
SAUS46 KSTO 271723
MTRBLU
SPECI KBLU 271721Z AUTO 20005KT 1SM BR BKN002 OVC010 03/01 A2982 RMK
AO2 T00280011





000
SAUS46 KSTO 271718
MTRBLU
SPECI KBLU 271717Z AUTO 19006KT 1/4SM FG OVC002 03/01 A2982 RMK AO2
T00280011





000
SAUS46 KSTO 271708
MTRBLU
SPECI KBLU 271707Z AUTO 17007KT 3/4SM BR OVC003 03/01 A2981 RMK AO2
VIS 1/4V5 T00280011





000
SAUS46 KSTO 271708
MTRBLU
SPECI KBLU 271707Z AUTO 17007KT 3/4SM BR OVC003 03/01 A2981 RMK AO2
VIS 1/4V5 T00280011





000
SAUS46 KSTO 271705
MTRBLU
SPECI KBLU 271704Z AUTO 17006KT 1 3/4SM BR BKN003 OVC007 03/01 A2982
RMK AO2 VIS 3/4V5 T00280011





000
SAUS46 KSTO 271705
MTRBLU
SPECI KBLU 271704Z AUTO 17006KT 1 3/4SM BR BKN003 OVC007 03/01 A2982
RMK AO2 VIS 3/4V5 T00280011





000
SAUS46 KSTO 271700
MTRBLU
SPECI KBLU 271659Z AUTO 17006KT 7SM OVC003 03/01 A2982 RMK AO2 CIG
002V007 T00280011





000
SAUS46 KSTO 271700
MTRBLU
SPECI KBLU 271659Z AUTO 17006KT 7SM OVC003 03/01 A2982 RMK AO2 CIG
002V007 T00280011





000
SAUS46 KSTO 271653
MTRBLU
METAR KBLU 271652Z AUTO 19007KT 10SM OVC005 03/01 A2982 RMK AO2 CIG
002V008 SLP077 T00280011





000
SAUS46 KSTO 271653
MTRBLU
METAR KBLU 271652Z AUTO 19007KT 10SM OVC005 03/01 A2982 RMK AO2 CIG
002V008 SLP077 T00280011





000
SAUS46 KSTO 271554
MTRBLU
METAR KBLU 271552Z AUTO 00000KT 10SM OVC006 03/01 A2982 RMK AO2
SLP076 T00280006





000
SAUS46 KSTO 271554
MTRBLU
METAR KBLU 271552Z AUTO 00000KT 10SM OVC006 03/01 A2982 RMK AO2
SLP076 T00280006





000
SAUS46 KSTO 271540
MTRBLU
SPECI KBLU 271538Z AUTO 16004KT 10SM BKN007 02/01 A2982 RMK AO2
T00220006





000
SAUS46 KSTO 271540
MTRBLU
SPECI KBLU 271538Z AUTO 16004KT 10SM BKN007 02/01 A2982 RMK AO2
T00220006





000
SAUS46 KSTO 271531
MTRBLU
SPECI KBLU 271530Z AUTO 15004KT 10SM SCT007 SCT049 02/00 A2982 RMK
AO2 T00220000





000
SAUS46 KSTO 271531
MTRBLU
SPECI KBLU 271530Z AUTO 15004KT 10SM SCT007 SCT049 02/00 A2982 RMK
AO2 T00220000





000
SAUS46 KSTO 271453
MTRBLU
METAR KBLU 271452Z AUTO 14004KT 10SM FEW050 02/M01 A2982 RMK AO2
SLP082 T00171006 56005





000
SAUS46 KSTO 271453
MTRBLU
METAR KBLU 271452Z AUTO 14004KT 10SM FEW050 02/M01 A2982 RMK AO2
SLP082 T00171006 56005





000
SAUS46 KSTO 271353
MTRBLU
METAR KBLU 271352Z AUTO 17006KT 10SM CLR 03/M01 A2983 RMK AO2 SLP079
T00281006





000
SAUS46 KSTO 271353
MTRBLU
METAR KBLU 271352Z AUTO 17006KT 10SM CLR 03/M01 A2983 RMK AO2 SLP079
T00281006





000
SAUS46 KSTO 271253
MTRBLU
METAR KBLU 271252Z AUTO 15004KT 10SM SCT049 03/M01 A2984 RMK AO2
SLP073 T00281006





000
SAUS46 KSTO 271153
MTRBLU
METAR KBLU 271152Z AUTO 15003KT 10SM CLR 03/M01 A2984 RMK AO2 SLP073
T00331011 10072 20033 58017





000
SAUS46 KSTO 271053
MTRBLU
METAR KBLU 271052Z AUTO 14003KT 10SM BKN055 04/M01 A2986 RMK AO2
SLP077 T00391011





000
SAUS46 KSTO 271053
MTRBLU
METAR KBLU 271052Z AUTO 14003KT 10SM BKN055 04/M01 A2986 RMK AO2
SLP077 T00391011





000
SAUS46 KSTO 270953
MTRBLU
METAR KBLU 270952Z AUTO 00000KT 10SM SCT045 BKN055 BKN070 05/M01
A2989 RMK AO2 SLP084 T00501011





000
SAUS46 KSTO 270853
MTRBLU
METAR KBLU 270852Z AUTO 17005KT 10SM OVC042 06/M01 A2990 RMK AO2
SLP089 T00561011 58008





000
SAUS46 KSTO 270753
MTRBLU
METAR KBLU 270752Z AUTO 00000KT 10SM BKN060 OVC080 05/M01 A2991 RMK
AO2 SLP095 T00501011 401330050





000
SAUS46 KSTO 270653
MTRBLU
METAR KBLU 270652Z AUTO 20004KT 10SM FEW039 BKN050 OVC080 07/M01
A2993 RMK AO2 SLP098 T00671011





000
SAUS46 KSTO 270553
MTRBLU
METAR KBLU 270552Z AUTO 00000KT 10SM CLR 07/M02 A2993 RMK AO2 SLP099
T00721017 10122 20067 58010





000
SAUS46 KSTO 270453
MTRBLU
METAR KBLU 270452Z AUTO 36003KT 10SM CLR 07/M01 A2995 RMK AO2 SLP107
T00721011





000
SAUS46 KSTO 270353
MTRBLU
METAR KBLU 270352Z AUTO 00000KT 10SM OVC070 08/M01 A2997 RMK AO2
SLP116 T00781006





000
SAUS46 KSTO 270353
MTRBLU
METAR KBLU 270352Z AUTO 00000KT 10SM OVC070 08/M01 A2997 RMK AO2
SLP116 T00781006





000
SAUS46 KSTO 270253
MTRBLU
METAR KBLU 270252Z AUTO 34003KT 10SM CLR 07/M01 A2997 RMK AO2 SLP119
T00721006 58007





000
SAUS46 KSTO 270153
MTRBLU
METAR KBLU 270152Z AUTO VRB03KT 10SM CLR 08/00 A2998 RMK AO2 SLP121
T00830000





000
SAUS46 KSTO 270053
MTRBLU
METAR KBLU 270052Z AUTO 33008KT 10SM CLR 11/M09 A2999 RMK AO2 SLP116
T01111089





000
SAUS46 KSTO 262353
MTRBLU
METAR KBLU 262352Z AUTO 31008KT 10SM CLR 12/M11 A2999 RMK AO2 SLP116
T01221111 10133 20100 56015





000
SAUS46 KSTO 262253
MTRBLU
METAR KBLU 262252Z AUTO VRB05KT 10SM CLR 13/M11 A3000 RMK AO2 SLP114
T01281111





000
SAUS46 KSTO 262054
MTRBLU
METAR KBLU 262052Z AUTO VRB06KT 10SM CLR 12/M11 A3004 RMK AO2 SLP127
T01221106 58017





000
SAUS46 KSTO 261953
MTRBLU
METAR KBLU 261952Z AUTO VRB05KT 10SM CLR 12/M08 A3006 RMK AO2 SLP137
T01171083





000
SAUS46 KSTO 261853
MTRBLU
METAR KBLU 261852Z AUTO VRB04KT 10SM FEW095 11/M07 A3009 RMK AO2
SLP144 T01111072





000
SAUS46 KSTO 261753
MTRBLU
METAR KBLU 261752Z AUTO 00000KT 10SM CLR 11/M04 A3010 RMK AO2 SLP151
T01061044 10106 20067 50004





000
SAUS46 KSTO 261654
MTRBLU
METAR KBLU 261652Z AUTO VRB06KT 10SM BKN110 09/M05 A3010 RMK AO2
SLP154 T00941050





000
SAUS46 KSTO 261654
MTRBLU
METAR KBLU 261652Z AUTO VRB06KT 10SM BKN110 09/M05 A3010 RMK AO2
SLP154 T00941050





000
SAUS46 KSTO 261553
MTRBLU
METAR KBLU 261552Z AUTO 04008KT 360V070 10SM CLR 08/M04 A3010 RMK
AO2 SLP156 T00781039





000
SAUS46 KSTO 261453
MTRBLU
METAR KBLU 261452Z AUTO 04007G14KT 010V090 10SM CLR 07/M04 A3009 RMK
AO2 SLP154 T00721044 53001





000
SAUS46 KSTO 261353
MTRBLU
METAR KBLU 261352Z AUTO 05008KT 10SM CLR 07/M04 A3008 RMK AO2 SLP153
T00671044





000
SAUS46 KSTO 261254
MTRBLU
METAR KBLU 261252Z AUTO 05008KT 10SM CLR 07/M06 A3008 RMK AO2 SLP151
T00721056





000
SAUS46 KSTO 261153
MTRBLU
METAR KBLU 261152Z AUTO 04006KT 10SM CLR 08/M07 A3009 RMK AO2 SLP148
T00781072 10106 20078 58012





000
SAUS46 KSTO 261153
MTRBLU
METAR KBLU 261152Z AUTO 04006KT 10SM CLR 08/M07 A3009 RMK AO2 SLP148
T00781072 10106 20078 58012





000
SAUS46 KSTO 261054
MTRBLU
METAR KBLU 261052Z AUTO 34004KT 10SM CLR 08/M08 A3010 RMK AO2 SLP151
T00831083





000
SAUS46 KSTO 261054
MTRBLU
METAR KBLU 261052Z AUTO 34004KT 10SM CLR 08/M08 A3010 RMK AO2 SLP151
T00831083





000
SAUS46 KSTO 260953
MTRBLU
METAR KBLU 260952Z AUTO 01004KT 10SM CLR 09/M09 A3012 RMK AO2 SLP152
T00941089





000
SAUS46 KSTO 260853
MTRBLU
METAR KBLU 260852Z AUTO 04003KT 10SM CLR 09/M08 A3013 RMK AO2 SLP154
T00941083 56010





000
SAUS46 KSTO 260853
MTRBLU
METAR KBLU 260852Z AUTO 04003KT 10SM CLR 09/M08 A3013 RMK AO2 SLP154
T00941083 56010





000
SAUS46 KSTO 260753
MTRBLU
METAR KBLU 260752Z AUTO 04005KT 10SM CLR 09/M08 A3014 RMK AO2 SLP159
T00941083 401500072





000
SAUS46 KSTO 260653
MTRBLU
METAR KBLU 260652Z AUTO 06003KT 10SM CLR 11/M08 A3014 RMK AO2 SLP159
T01061083





000
SAUS46 KSTO 260653
MTRBLU
METAR KBLU 260652Z AUTO 06003KT 10SM CLR 11/M08 A3014 RMK AO2 SLP159
T01061083





000
SAUS46 KSTO 260553
MTRBLU
METAR KBLU 260552Z AUTO 03003KT 10SM CLR 11/M07 A3016 RMK AO2 SLP162
T01061067 10122 20094 50001





000
SAUS46 KSTO 260553
MTRBLU
METAR KBLU 260552Z AUTO 03003KT 10SM CLR 11/M07 A3016 RMK AO2 SLP162
T01061067 10122 20094 50001





000
SAUS46 KSTO 260453
MTRBLU
METAR KBLU 260452Z AUTO 03004KT 10SM CLR 10/M07 A3018 RMK AO2 SLP174
T01001067





000
SAUS46 KSTO 260453
MTRBLU
METAR KBLU 260452Z AUTO 03004KT 10SM CLR 10/M07 A3018 RMK AO2 SLP174
T01001067





000
SAUS46 KSTO 260353
MTRBLU
METAR KBLU 260352Z AUTO 03004KT 10SM CLR 11/M07 A3016 RMK AO2 SLP170
T01111067





000
SAUS46 KSTO 260253
MTRBLU
METAR KBLU 260252Z AUTO 04005KT 10SM CLR 11/M01 A3016 RMK AO2 SLP176
T01061011 56009





000
SAUS46 KSTO 260253
MTRBLU
METAR KBLU 260252Z AUTO 04005KT 10SM CLR 11/M01 A3016 RMK AO2 SLP176
T01061011 56009





000
SAUS46 KSTO 260153
MTRBLU
METAR KBLU 260152Z AUTO 02004KT 10SM CLR 10/00 A3017 RMK AO2 SLP179
T01000000





000
SAUS46 KSTO 260054
MTRBLU
METAR KBLU 260052Z AUTO 28003KT 10SM CLR 11/M01 A3018 RMK AO2 SLP182
T01061011





000
SAUS46 KSTO 260054
MTRBLU
METAR KBLU 260052Z AUTO 28003KT 10SM CLR 11/M01 A3018 RMK AO2 SLP182
T01061011





000
SAUS46 KSTO 252354
MTRBLU
METAR KBLU 252352Z AUTO 24007KT 10SM CLR 12/M01 A3019 RMK AO2 SLP183
T01221006 10150 20117 55014





000
SAUS46 KSTO 252354
MTRBLU
METAR KBLU 252352Z AUTO 24007KT 10SM CLR 12/M01 A3019 RMK AO2 SLP183
T01221006 10150 20117 55014





000
SAUS46 KSTO 252253
MTRBLU
METAR KBLU 252252Z AUTO 27006KT 10SM CLR 12/M01 A3018 RMK AO2 SLP180
T01221011





000
SAUS46 KSTO 252253
MTRBLU
METAR KBLU 252252Z AUTO 27006KT 10SM CLR 12/M01 A3018 RMK AO2 SLP180
T01221011





000
SAUS46 KSTO 252153
MTRBLU
METAR KBLU 252152Z AUTO 26006KT 10SM CLR 13/M02 A3020 RMK AO2 SLP183
T01331022





000
SAUS46 KSTO 252153
MTRBLU
METAR KBLU 252152Z AUTO 26006KT 10SM CLR 13/M02 A3020 RMK AO2 SLP183
T01331022





000
SAUS46 KSTO 252053
MTRBLU
METAR KBLU 252052Z AUTO 25007KT 10SM CLR 14/M03 A3024 RMK AO2 SLP193
T01391033 58012





000
SAUS46 KSTO 252053
MTRBLU
METAR KBLU 252052Z AUTO 25007KT 10SM CLR 14/M03 A3024 RMK AO2 SLP193
T01391033 58012





000
SAUS46 KSTO 251954
MTRBLU
METAR KBLU 251952Z AUTO 26006KT 10SM CLR 14/M08 A3026 RMK AO2 SLP200
T01391078





000
SAUS46 KSTO 251853
MTRBLU
METAR KBLU 251852Z AUTO 28006KT 10SM CLR 13/M07 A3029 RMK AO2 SLP214
T01281067





000
SAUS46 KSTO 251654
MTRBLU
METAR KBLU 251652Z AUTO VRB03KT 10SM CLR 12/M12 A3029 RMK AO2 SLP212
T01171122





000
SAUS46 KSTO 251654
MTRBLU
METAR KBLU 251652Z AUTO VRB03KT 10SM CLR 12/M12 A3029 RMK AO2 SLP212
T01171122





000
SAUS46 KSTO 251553
MTRBLU
METAR KBLU 251552Z AUTO VRB05KT 10SM CLR 09/M12 A3029 RMK AO2 SLP219
T00941122





000
SAUS46 KSTO 251553
MTRBLU
METAR KBLU 251552Z AUTO VRB05KT 10SM CLR 09/M12 A3029 RMK AO2 SLP219
T00941122





000
SAUS46 KSTO 251453
MTRBLU
METAR KBLU 251452Z AUTO VRB06KT 10SM CLR 08/M16 A3029 RMK AO2 SLP228
T00831156 55001





000
SAUS46 KSTO 251353
MTRBLU
METAR KBLU 251352Z AUTO 05005KT 10SM CLR 09/M16 A3028 RMK AO2 SLP224
T00891156





000
SAUS46 KSTO 251353
MTRBLU
METAR KBLU 251352Z AUTO 05005KT 10SM CLR 09/M16 A3028 RMK AO2 SLP224
T00891156





000
SAUS46 KSTO 251253
MTRBLU
METAR KBLU 251252Z AUTO VRB04KT 10SM CLR 09/M18 A3030 RMK AO2 SLP222
T00941183





000
SAUS46 KSTO 251253
MTRBLU
METAR KBLU 251252Z AUTO VRB04KT 10SM CLR 09/M18 A3030 RMK AO2 SLP222
T00941183





000
SAUS46 KSTO 251153
MTRBLU
METAR KBLU 251152Z AUTO 04006KT 10SM CLR 09/M21 A3030 RMK AO2 SLP223
T00891206 10100 20072 58003





000
SAUS46 KSTO 251153
MTRBLU
METAR KBLU 251152Z AUTO 04006KT 10SM CLR 09/M21 A3030 RMK AO2 SLP223
T00891206 10100 20072 58003





000
SAUS46 KSTO 251053
MTRBLU
METAR KBLU 251052Z AUTO 00000KT 10SM CLR 08/M16 A3032 RMK AO2 SLP227
T00831156





000
SAUS46 KSTO 251053
MTRBLU
METAR KBLU 251052Z AUTO 00000KT 10SM CLR 08/M16 A3032 RMK AO2 SLP227
T00831156





000
SAUS46 KSTO 250953
MTRBLU
METAR KBLU 250952Z AUTO 35006KT 10SM CLR 09/M19 A3031 RMK AO2 SLP224
T00891189





000
SAUS46 KSTO 250853
MTRBLU
METAR KBLU 250852Z AUTO 00000KT 10SM CLR 09/M16 A3031 RMK AO2 SLP220
T00891156 58008





000
SAUS46 KSTO 250753
MTRBLU
METAR KBLU 250752Z AUTO 00000KT 10SM CLR 09/M11 A3032 RMK AO2 SLP231
T00891111 401330011





    US Dept of Commerce
    National Oceanic and Atmospheric Administration
    National Weather Service
    1325 East West Highway
    Silver Spring, MD 20910
    Page Author: NWS Internet Services Team
Disclaimer
Information Quality
Credits
Glossary
Privacy Policy
Freedom of Information Act (FOIA)
About Us
Career Opportunities